South Orleans, Massachusetts
Current Conditions -  °F | °C
As of 1:14 PM on Wednesday 28 Jan 2015 (Local Time) from KCQX Reporting Station
Scattered Clouds Scattered Clouds  
Wind Chill: 15°   Ceiling: Unl
Heat Index: 24°   Visibility: 10mi
Dew Point: 14°   Wind: 8mph
Humidity: 65%   Direction: 340°NNW
Pressure: 29.92"   Gusts: NA
Location:  41.75°N, 69.99°W
Report Text: KCQX 281814Z AUTO 34007KT 10SM SCT024 M04/M10 A2992 RMK AO2 T10441100
Loading
Personal Weather Stations






























Interactive Weather Map New forecast layout! Learn more

10-Day Weather Forecast

Advertisements
Track Severe Weather on mobile